.
WxDataArchive / Data Records for 2008-10-27
2008-10-26 October 2008 2008-10-28

Data Records for Monday, 27 October 2008

Time	Temp	Chill	HIndex	Humid	Dewpt	 Wind 	HiWind	WindDir	Rain 	Barom 
-----	----	-----	------	-----	-----	------	------	-------	-----	----- 
00:00	38.0	38.0	38.0	62	26.2	2	5	248	0.00	29.900 
00:05	37.9	37.9	37.9	62	26.1	2	9	248	0.00	29.899 
00:10	37.8	37.8	37.8	62	26.0	2	6	248	0.00	29.899 
00:15	37.8	37.8	37.8	62	26.0	2	6	248	0.00	29.900 
00:20	37.8	37.8	37.8	62	26.0	2	5	248	0.00	29.900 
00:25	37.8	37.8	37.8	63	26.4	1	4	248	0.00	29.900 
00:30	37.8	37.8	37.8	63	26.4	1	5	270	0.00	29.900 
00:35	37.9	37.9	37.9	63	26.4	1	3	270	0.00	29.900 
00:40	38.0	38.0	38.0	63	26.5	1	4	248	0.00	29.900 
00:45	38.2	38.2	38.2	62	26.3	2	6	248	0.00	29.898 
00:50	38.3	38.3	38.3	62	26.4	2	5	248	0.00	29.899 
00:55	38.5	38.5	38.5	62	26.6	2	6	248	0.00	29.897 
01:00	38.5	38.5	38.5	62	26.6	2	5	248	0.00	29.900 
01:05	38.5	38.5	38.5	62	26.6	1	3	248	0.00	29.898 
01:10	38.5	38.5	38.5	62	26.6	1	5	248	0.00	29.899 
01:15	38.5	38.5	38.5	62	26.6	2	6	248	0.00	29.899 
01:20	38.5	38.5	38.5	62	26.6	2	11	248	0.00	29.902 
01:25	38.5	38.5	38.5	62	26.6	2	11	248	0.00	29.906 
01:30	38.3	38.3	38.3	62	26.4	3	9	248	0.00	29.907 
01:35	38.3	38.3	38.3	63	26.8	2	5	248	0.00	29.909 
01:40	38.0	38.0	38.0	65	27.3	3	5	248	0.00	29.912 
01:45	37.8	37.8	37.8	68	28.2	3	6	248	0.00	29.912 
01:50	37.3	37.3	37.3	70	28.4	3	6	270	0.00	29.914 
01:55	37.0	33.9	37.0	72	28.8	4	10	248	0.00	29.914 
02:00	36.9	36.9	36.9	73	29.1	3	8	270	0.00	29.915 
02:05	36.8	36.8	36.8	74	29.3	3	5	248	0.00	29.912 
02:10	36.8	36.8	36.8	74	29.3	2	5	248	0.00	29.914 
02:15	36.9	36.9	36.9	73	29.1	2	6	248	0.00	29.912 
02:20	37.0	37.0	37.0	73	29.2	2	6	248	0.00	29.912 
02:25	37.0	37.0	37.0	72	28.8	2	5	248	0.00	29.912 
02:30	37.0	37.0	37.0	72	28.8	2	6	248	0.00	29.914 
02:35	37.0	37.0	37.0	72	28.8	3	7	270	0.00	29.914 
02:40	37.2	37.2	37.2	72	29.0	3	7	248	0.00	29.913 
02:45	37.2	37.2	37.2	72	29.0	3	9	248	0.00	29.912 
02:50	37.3	37.3	37.3	72	29.1	2	7	248	0.00	29.913 
02:55	37.5	34.4	37.5	72	29.3	4	7	270	0.00	29.914 
03:00	37.5	34.4	37.5	72	29.3	4	11	270	0.00	29.915 
03:05	37.5	37.5	37.5	73	29.6	3	6	270	0.00	29.917 
03:10	37.5	37.5	37.5	73	29.6	2	5	248	0.00	29.917 
03:15	37.5	37.5	37.5	74	30.0	3	9	248	0.00	29.917 
03:20	37.3	37.3	37.3	75	30.1	2	4	248	0.00	29.919 
03:25	37.2	37.2	37.2	76	30.3	3	7	248	0.00	29.921 
03:30	37.2	37.2	37.2	77	30.7	2	5	270	0.00	29.921 
03:35	37.0	37.0	37.0	78	30.8	3	9	248	0.00	29.921 
03:40	36.9	36.9	36.9	80	31.3	2	5	248	0.00	29.925 
03:45	36.9	36.9	36.9	81	31.6	3	9	270	0.00	29.927 
03:50	36.9	36.9	36.9	81	31.6	3	10	248	0.00	29.928 
03:55	36.9	36.9	36.9	81	31.6	2	5	248	0.00	29.928 
04:00	36.9	36.9	36.9	82	31.9	2	6	248	0.00	29.930 
04:05	36.9	36.9	36.9	82	31.9	2	5	248	0.00	29.933 
04:10	37.0	37.0	37.0	82	32.0	3	11	270	0.00	29.933 
04:15	37.0	33.9	37.0	82	32.0	4	6	270	0.00	29.934 
04:20	37.2	37.2	37.2	82	32.2	3	6	270	0.00	29.937 
04:25	37.2	37.2	37.2	82	32.2	3	6	270	0.00	29.940 
04:30	37.2	37.2	37.2	83	32.5	2	4	248	0.00	29.942 
04:35	37.2	37.2	37.2	84	32.8	2	4	270	0.00	29.945 
04:40	37.0	37.0	37.0	84	32.6	3	7	270	0.00	29.946 
04:45	37.0	37.0	37.0	85	32.9	2	6	248	0.00	29.947 
04:50	37.0	37.0	37.0	86	33.2	2	5	248	0.00	29.948 
04:55	37.0	37.0	37.0	87	33.5	2	5	248	0.00	29.949 
05:00	37.0	37.0	37.0	87	33.5	2	5	248	0.00	29.951 
05:05	37.0	37.0	37.0	87	33.5	2	4	248	0.00	29.958 
05:10	37.2	37.2	37.2	87	33.7	2	5	248	0.00	29.961 
05:15	37.3	37.3	37.3	87	33.8	2	5	270	0.00	29.962 
05:20	37.5	37.5	37.5	86	33.7	2	5	248	0.00	29.964 
05:25	37.5	37.5	37.5	86	33.7	2	6	248	0.00	29.963 
05:30	37.6	37.6	37.6	86	33.8	2	6	248	0.00	29.969 
05:35	37.8	37.8	37.8	86	34.0	2	4	248	0.00	29.970 
05:40	37.8	37.8	37.8	85	33.7	1	5	248	0.00	29.970 
05:45	37.9	37.9	37.9	85	33.8	2	7	248	0.00	29.971 
05:50	37.9	37.9	37.9	85	33.8	2	6	270	0.00	29.971 
05:55	38.0	38.0	38.0	85	33.9	2	4	248	0.00	29.973 
06:00	38.2	38.2	38.2	85	34.1	2	7	270	0.00	29.975 
06:05	38.2	38.2	38.2	85	34.1	1	4	270	0.00	29.978 
06:10	38.2	38.2	38.2	85	34.1	3	6	248	0.00	29.980 
06:15	38.3	38.3	38.3	85	34.2	1	2	248	0.00	29.981 
06:20	38.5	38.5	38.5	84	34.1	1	3	248	0.00	29.983 
06:25	38.5	38.5	38.5	84	34.1	2	3	248	0.00	29.984 
06:30	38.5	38.5	38.5	84	34.1	1	4	248	0.00	29.984 
06:35	38.6	38.6	38.6	84	34.2	2	5	248	0.00	29.985 
06:40	38.6	38.6	38.6	84	34.2	2	5	248	0.00	29.985 
06:45	38.8	38.8	38.8	83	34.1	1	4	270	0.00	29.987 
06:50	38.8	38.8	38.8	83	34.1	2	4	248	0.00	29.988 
06:55	38.8	38.8	38.8	83	34.1	2	5	292	0.00	29.988 
07:00	38.8	38.8	38.8	83	34.1	1	4	248	0.00	29.989 
07:05	38.8	38.8	38.8	84	34.4	2	5	248	0.00	29.988 
07:10	38.8	38.8	38.8	84	34.4	1	4	270	0.00	29.991 
07:15	38.9	38.9	38.9	83	34.2	2	4	270	0.00	29.998 
07:20	38.9	38.9	38.9	83	34.2	2	4	270	0.00	30.001 
07:25	38.9	38.9	38.9	82	33.9	2	4	270	0.00	30.003 
07:30	39.1	39.1	39.1	82	34.1	2	3	248	0.00	30.005 
07:35	39.1	39.1	39.1	82	34.1	2	5	270	0.00	30.007 
07:40	39.1	39.1	39.1	82	34.1	1	3	248	0.00	30.010 
07:45	39.1	39.1	39.1	81	33.8	3	5	270	0.00	30.017 
07:50	39.2	39.2	39.2	81	33.9	2	5	248	0.00	30.018 
07:55	39.2	39.2	39.2	81	33.9	2	5	270	0.00	30.019 
08:00	39.1	39.1	39.1	81	33.8	3	6	270	0.00	30.020 
08:05	39.1	39.1	39.1	81	33.8	2	5	248	0.00	30.025 
08:10	39.2	39.2	39.2	81	33.9	2	4	248	0.00	30.028 
08:15	39.3	39.3	39.3	80	33.7	2	5	270	0.00	30.033 
08:20	39.3	39.3	39.3	80	33.7	2	5	248	0.00	30.033 
08:25	39.3	39.3	39.3	80	33.7	3	7	270	0.00	30.036 
08:30	39.3	39.3	39.3	80	33.7	2	4	292	0.00	30.037 
08:35	39.5	39.5	39.5	80	33.9	3	5	292	0.00	30.038 
08:40	39.5	39.5	39.5	81	34.2	3	5	270	0.00	30.039 
08:45	39.6	39.6	39.6	81	34.3	2	5	270	0.00	30.039 
08:50	39.8	39.8	39.8	80	34.1	2	4	270	0.00	30.040 
08:55	39.8	39.8	39.8	80	34.1	3	5	270	0.00	30.040 
09:00	40.1	40.1	40.1	80	34.4	2	4	270	0.00	30.041 
09:05	40.3	40.3	40.3	79	34.3	2	5	270	0.00	30.042 
09:10	40.3	40.3	40.3	78	34.0	3	6	270	0.00	30.042 
09:15	40.3	40.3	40.3	78	34.0	2	5	292	0.00	30.042 
09:20	40.6	40.6	40.6	79	34.6	2	5	248	0.00	30.046 
09:25	40.6	40.6	40.6	78	34.3	2	5	248	0.00	30.044 
09:30	40.8	40.8	40.8	77	34.2	3	6	270	0.00	30.047 
09:35	40.9	40.9	40.9	78	34.6	2	5	270	0.00	30.049 
09:40	41.1	41.1	41.1	77	34.4	2	6	270	0.00	30.051 
09:45	40.9	40.9	40.9	77	34.3	2	3	270	0.00	30.051 
09:50	41.1	41.1	41.1	77	34.4	1	3	248	0.00	30.052 
09:55	41.1	41.1	41.1	77	34.4	2	5	248	0.00	30.053 
10:00	41.2	41.2	41.2	76	34.2	2	4	270	0.00	30.053 
10:05	41.5	41.5	41.5	76	34.5	1	4	270	0.00	30.054 
10:10	41.8	41.8	41.8	76	34.8	2	5	292	0.00	30.055 
10:15	41.9	41.9	41.9	75	34.6	2	5	248	0.00	30.055 
10:20	41.9	41.9	41.9	75	34.6	2	4	270	0.00	30.056 
10:25	42.1	42.1	42.1	75	34.8	1	3	338	0.00	30.056 
10:30	42.1	42.1	42.1	74	34.4	2	5	315	0.00	30.058 
10:35	42.1	42.1	42.1	74	34.4	2	5	270	0.00	30.060 
10:40	42.2	42.2	42.2	74	34.5	2	6	270	0.00	30.060 
10:45	42.5	42.5	42.5	75	35.1	2	4	292	0.00	30.062 
10:50	42.8	42.8	42.8	74	35.1	3	4	270	0.00	30.063 
10:55	42.9	42.9	42.9	73	34.9	2	5	292	0.00	30.064 
11:00	43.1	43.1	43.1	74	35.4	2	6	270	0.00	30.067 
11:05	43.3	43.3	43.3	75	35.9	2	4	315	0.00	30.070 
11:10	42.9	42.9	42.9	76	35.9	2	9	315	0.00	30.070 
11:15	42.3	42.3	42.3	78	35.9	2	4	315	0.00	30.072 
11:20	42.2	42.2	42.2	79	36.2	2	5	270	0.00	30.074 
11:25	42.2	42.2	42.2	79	36.2	2	7	315	0.00	30.075 
11:30	42.2	42.2	42.2	79	36.2	2	5	315	0.00	30.077 
11:35	42.5	42.5	42.5	79	36.5	2	4	315	0.00	30.077 
11:40	42.5	42.5	42.5	79	36.5	2	4	292	0.00	30.078 
11:45	42.8	42.8	42.8	79	36.7	1	4	338	0.00	30.079 
11:50	42.8	42.8	42.8	80	37.1	2	5	270	0.00	30.077 
11:55	42.5	42.5	42.5	81	37.1	2	5	270	0.00	30.077 
12:00	42.5	42.5	42.5	81	37.1	2	4	270	0.00	30.077 
12:05	42.8	42.8	42.8	82	37.7	1	3	248	0.00	30.072 
12:10	42.8	42.8	42.8	81	37.4	2	4	248	0.00	30.073 
12:15	42.9	42.9	42.9	81	37.5	2	5	338	0.00	30.072 
12:20	42.6	42.6	42.6	82	37.5	1	3	315	0.01	30.073 
12:25	42.2	42.2	42.2	84	37.7	1	3	315	0.00	30.075 
12:30	41.5	41.5	41.5	84	37.0	2	4	270	0.00	30.077 
12:35	41.2	41.2	41.2	86	37.3	1	3	315	0.00	30.078 
12:40	41.1	41.1	41.1	87	37.5	2	3	248	0.01	30.081 
12:45	40.6	40.6	40.6	87	37.0	1	4	292	0.00	30.079 
12:50	40.6	40.6	40.6	88	37.3	2	4	292	0.00	30.080 
12:55	41.2	41.2	41.2	88	37.9	1	4	270	0.00	30.079 
13:00	42.1	42.1	42.1	89	39.1	1	3	270	0.00	30.077 
13:05	42.3	42.3	42.3	88	39.0	2	7	315	0.00	30.082 
13:10	42.3	42.3	42.3	86	38.4	2	5	270	0.00	30.084 
13:15	42.5	42.5	42.5	86	38.6	1	3	292	0.00	30.083 
13:20	42.5	42.5	42.5	86	38.6	1	3	248	0.00	30.081 
13:25	42.5	42.5	42.5	86	38.6	1	3	270	0.00	30.084 
13:30	42.6	42.6	42.6	85	38.4	2	4	270	0.00	30.085 
13:35	42.6	42.6	42.6	84	38.1	1	3	315	0.00	30.085 
13:40	42.2	42.2	42.2	84	37.7	1	4	315	0.01	30.088 
13:45	40.9	40.9	40.9	83	36.1	1	4	315	0.00	30.091 
13:50	40.2	40.2	40.2	85	36.1	0	2	270	0.01	30.096 
13:55	39.5	39.5	39.5	86	35.7	1	5	338	0.00	30.100 
14:00	39.3	39.3	39.3	87	35.8	1	3	292	0.00	30.101 
14:05	39.3	39.3	39.3	88	36.0	1	4	315	0.01	30.101 
14:10	39.8	39.8	39.8	90	37.1	1	3	315	0.00	30.099 
14:15	40.3	40.3	40.3	91	37.9	0	2	315	0.00	30.091 
14:20	40.9	40.9	40.9	91	38.5	1	2	315	0.00	30.091 
14:25	41.5	41.5	41.5	90	38.8	0	2	315	0.00	30.092 
14:30	41.9	41.9	41.9	90	39.2	1	4	315	0.00	30.090 
14:35	42.1	42.1	42.1	88	38.8	1	2	315	0.00	30.093 
14:40	42.2	42.2	42.2	87	38.6	1	5	338	0.00	30.097 
14:45	42.3	42.3	42.3	85	38.1	1	4	315	0.00	30.098 
14:50	42.3	42.3	42.3	84	37.8	1	3	292	0.00	30.099 
14:55	42.3	42.3	42.3	82	37.2	1	4	315	0.00	30.100 
15:00	42.3	42.3	42.3	81	36.9	1	4	315	0.00	30.100 
15:05	42.5	42.5	42.5	78	36.1	1	4	315	0.00	30.102 
15:10	42.6	42.6	42.6	75	35.2	2	5	315	0.00	30.102 
15:15	42.8	42.8	42.8	75	35.4	1	3	315	0.00	30.104 
15:20	42.9	42.9	42.9	75	35.5	1	7	315	0.00	30.103 
15:25	43.1	43.1	43.1	72	34.7	1	5	292	0.00	30.106 
15:30	42.9	42.9	42.9	71	34.2	2	4	292	0.00	30.105 
15:35	43.1	43.1	43.1	72	34.7	1	3	338	0.00	30.106 
15:40	43.1	43.1	43.1	73	35.0	1	3	315	0.00	30.107 
15:45	43.2	43.2	43.2	74	35.5	1	3	315	0.00	30.112 
15:50	43.1	43.1	43.1	74	35.4	1	2	315	0.00	30.115 
15:55	42.8	42.8	42.8	76	35.8	1	4	315	0.00	30.117 
16:00	42.3	42.3	42.3	78	35.9	2	5	248	0.00	30.120 
16:05	40.9	40.9	40.9	80	35.2	3	6	315	0.00	30.126 
16:10	39.9	39.9	39.9	83	35.2	2	3	315	0.00	30.129 
16:15	39.6	39.6	39.6	85	35.5	2	6	270	0.00	30.130 
16:20	39.6	39.6	39.6	86	35.8	0	2	270	0.00	30.132 
16:25	39.6	39.6	39.6	86	35.8	0	2	292	0.00	30.135 
16:30	39.8	39.8	39.8	86	36.0	1	4	292	0.00	30.135 
16:35	40.1	40.1	40.1	85	36.0	1	3	248	0.00	30.136 
16:40	40.2	40.2	40.2	84	35.8	1	3	315	0.00	30.137 
16:45	40.5	40.5	40.5	83	35.8	1	2	315	0.00	30.134 
16:50	40.6	40.6	40.6	82	35.5	1	3	270	0.00	30.133 
16:55	40.8	40.8	40.8	82	35.7	0	2	270	0.00	30.133 
17:00	40.8	40.8	40.8	82	35.7	1	3	270	0.00	30.134 
17:05	40.6	40.6	40.6	82	35.5	1	4	270	0.00	30.136 
17:10	40.6	40.6	40.6	82	35.5	1	3	315	0.00	30.137 
17:15	40.5	40.5	40.5	82	35.4	2	4	315	0.00	30.138 
17:20	40.3	40.3	40.3	81	34.9	2	4	270	0.00	30.139 
17:25	40.2	40.2	40.2	81	34.8	1	4	270	0.00	30.140 
17:30	39.9	39.9	39.9	82	34.9	1	3	270	0.00	30.144 
17:35	39.8	39.8	39.8	82	34.8	1	3	270	0.00	30.147 
17:40	39.5	39.5	39.5	83	34.8	0	1	270	0.00	30.150 
17:45	39.3	39.3	39.3	83	34.6	0	1	270	0.00	30.153 
17:50	39.2	39.2	39.2	84	34.8	0	1	270	0.00	30.154 
17:55	39.2	39.2	39.2	84	34.8	0	1	270	0.00	30.155 
18:00	39.1	39.1	39.1	84	34.7	0	1	270	0.00	30.161 
18:05	39.1	39.1	39.1	84	34.7	0	2	270	0.00	30.161 
18:10	39.1	39.1	39.1	84	34.7	1	2	338	0.00	30.163 
18:15	39.1	39.1	39.1	83	34.4	0	1	338	0.00	30.164 
18:20	39.1	39.1	39.1	82	34.1	1	3	338	0.00	30.166 
18:25	38.9	38.9	38.9	81	33.6	0	1	338	0.00	30.167 
18:30	38.8	38.8	38.8	82	33.8	0	2	338	0.00	30.169 
18:35	38.6	38.6	38.6	82	33.6	0	1	338	0.00	30.172 
18:40	38.3	38.3	38.3	82	33.3	0	1	338	0.00	30.176 
18:45	38.3	38.3	38.3	82	33.3	0	1	338	0.00	30.180 
18:50	38.5	38.5	38.5	81	33.2	0	2	338	0.00	30.182 
18:55	38.5	38.5	38.5	80	32.9	0	2	338	0.00	30.182 
19:00	38.3	38.3	38.3	80	32.7	0	2	338	0.00	30.185 
19:05	38.2	38.2	38.2	81	32.9	0	2	338	0.00	30.185 
19:10	38.0	38.0	38.0	81	32.7	0	2	338	0.00	30.185 
19:15	37.9	37.9	37.9	80	32.3	1	3	338	0.00	30.185 
19:20	37.9	37.9	37.9	80	32.3	1	2	338	0.00	30.185 
19:25	37.8	37.8	37.8	81	32.5	1	3	292	0.00	30.185 
19:30	37.8	37.8	37.8	81	32.5	1	3	292	0.00	30.185 
19:35	37.6	37.6	37.6	81	32.3	0	1	248	0.00	30.185 
19:40	37.3	37.3	37.3	82	32.3	0	1	248	0.00	30.187 
19:45	37.2	37.2	37.2	82	32.2	1	2	248	0.00	30.189 
19:50	37.0	37.0	37.0	83	32.3	0	3	315	0.00	30.192 
19:55	36.9	36.9	36.9	83	32.2	1	4	270	0.00	30.196 
20:00	36.9	36.9	36.9	83	32.2	1	3	270	0.00	30.198 
20:05	36.8	36.8	36.8	84	32.4	1	3	315	0.00	30.197 
20:10	36.6	36.6	36.6	84	32.2	1	4	270	0.00	30.197 
20:15	36.6	36.6	36.6	84	32.2	1	4	270	0.00	30.197 
20:20	36.5	36.5	36.5	84	32.1	1	3	315	0.00	30.198 
20:25	36.3	36.3	36.3	85	32.2	1	2	315	0.00	30.200 
20:30	36.3	36.3	36.3	85	32.2	1	4	248	0.00	30.200 
20:35	36.2	36.2	36.2	86	32.4	1	4	270	0.00	30.202 
20:40	36.0	36.0	36.0	86	32.2	1	3	315	0.00	30.202 
20:45	36.0	36.0	36.0	87	32.5	1	3	315	0.00	30.204 
20:50	36.0	36.0	36.0	87	32.5	1	4	292	0.00	30.206 
20:55	35.9	35.9	35.9	87	32.4	1	3	248	0.00	30.205 
21:00	35.9	35.9	35.9	87	32.4	1	3	292	0.00	30.207 
21:05	35.9	35.9	35.9	87	32.4	1	2	292	0.00	30.206 
21:10	35.8	35.8	35.8	87	32.3	1	3	292	0.00	30.204 
21:15	35.8	35.8	35.8	88	32.6	0	2	248	0.00	30.203 
21:20	35.8	35.8	35.8	88	32.6	1	3	270	0.00	30.203 
21:25	35.8	35.8	35.8	88	32.6	1	3	315	0.00	30.204 
21:30	35.8	35.8	35.8	88	32.6	0	2	270	0.00	30.205 
21:35	35.8	35.8	35.8	88	32.6	1	2	315	0.00	30.206 
21:40	35.8	35.8	35.8	87	32.3	0	2	315	0.00	30.207 
21:45	35.8	35.8	35.8	87	32.3	0	2	315	0.00	30.206 
21:50	35.6	35.6	35.6	87	32.1	0	1	315	0.00	30.210 
21:55	35.6	35.6	35.6	88	32.4	0	1	315	0.00	30.212 
22:00	35.5	35.5	35.5	88	32.3	0	1	315	0.00	30.214 
22:05	35.3	35.3	35.3	88	32.1	0	1	315	0.00	30.213 
22:10	35.3	35.3	35.3	88	32.1	0	1	315	0.00	30.213 
22:15	35.2	35.2	35.2	89	32.3	0	2	315	0.00	30.213 
22:20	35.2	35.2	35.2	89	32.3	1	3	315	0.00	30.214 
22:25	35.2	35.2	35.2	88	32.0	0	2	315	0.00	30.214 
22:30	35.2	35.2	35.2	88	32.0	0	2	315	0.00	30.214 
22:35	35.0	35.0	35.0	88	31.8	1	2	315	0.00	30.213 
22:40	35.0	35.0	35.0	88	31.8	0	3	270	0.00	30.214 
22:45	34.9	34.9	34.9	88	31.7	0	2	270	0.00	30.214 
22:50	34.9	34.9	34.9	88	31.7	0	2	270	0.00	30.214 
22:55	34.7	34.7	34.7	88	31.5	0	1	270	0.00	30.213 
23:00	34.6	34.6	34.6	88	31.4	0	1	270	0.00	30.214 
23:05	34.6	34.6	34.6	88	31.4	0	2	315	0.00	30.213 
23:10	34.6	34.6	34.6	88	31.4	0	3	315	0.00	30.213 
23:15	34.4	34.4	34.4	88	31.2	0	2	315	0.00	30.214 
23:20	34.3	34.3	34.3	88	31.1	0	2	315	0.00	30.214 
23:25	34.3	34.3	34.3	88	31.1	0	2	315	0.00	30.214 
23:30	34.3	34.3	34.3	88	31.1	0	3	315	0.00	30.214 
23:35	34.1	34.1	34.1	88	30.9	0	2	315	0.00	30.215 
23:40	34.0	34.0	34.0	88	30.8	0	2	315	0.00	30.216 
23:45	33.8	33.8	33.8	88	30.6	0	2	315	0.00	30.215 
23:50	33.8	33.8	33.8	89	30.9	1	5	270	0.00	30.215 
23:55	33.7	33.7	33.7	89	30.8	1	3	338	0.00	30.216 

CoCoRaHS
IN-AL-39
A2 Web Hosting
Creative Commons License
GoDaddy
Look for:

loaded 2017-12-11 14:24:57 • last modified 2010-11-18 10:43:29
Privacy PolicyDisclaimer
• wx.awcolley.com is powered by PmWiki v.2002016 •
• all content (unless otherwise noted) © 2017 A W Colley